aviador You're here:

OITT Decoded Metar

TABRIZ in IRAN
Report Time2017-09-23 08:30:00
UTC Time2017-09-23 09:07:26
Flight Rules mvfr MVFR
Wind180° at 04 kt
W.Decomp.*RWY 12: 2.3 kt HW 3.3 kt RCW
W.Rank180° ranks 30
Current wind is below 180° avg. (6.8)
Visibility7000 m
Phenomena:N/A
Clouds:Few 035 Hf
Expected CloudBase > 10,800 ft AGL from Temp-Dew spread
CeilingNone
Temp29°C (ISA +23)
Dew Point02°C (18% RH)
Heat Index27.4°C
AAT25.9°C
QNH1018 hPa
Density Alt6,991 ft
Elevation4,465 ft
Report Wrong Elevation
Raw Report
METAR OITT 230830Z 18004KT 7000 FEW035 29/02 Q1018 A3009=

Extra information for OITT:More info

Metar Taf Metar & Taf Last 4 Metars F.Rules Stats Wind Profile Meteogram Temp Stats Airport Information Weather charts Add Link Nearby VenuesMetar ALERT Operation Metar Decoded Social comments